Terminal Aerodrome Forecast
Issued by NWS Twin Cities, MN

Home | Current Version | Previous Version | Text Only | Print | Product List | Glossary On
Versions: 1 2 3 4 5 6 7 8 9 10 11 12 13 14 15 16 17 18 19 20 21 22 23 24 25 26 27 28
000
FTUS43 KMPX 280848 AAA
TAFMSP
TAF AMD
KMSP 280848Z 2809/2912 VRB03KT P6SM SCT250
     FM281000 17005KT P6SM BKN250
     FM281600 18018G25KT P6SM SCT060 BKN250
     FM290100 17010KT P6SM BKN090 BKN250
     FM290400 17007KT P6SM VCSH BKN050 OVC090
     FM290700 17005KT 6SM -SHRA OVC040=

USA.gov is the U.S. government's official web portal to all federal, state and local government web resources and services.